In Rescue
 
Open Full Screen Window  High Contrast Mode
September 19, 2019 4:44 PM CDT
Weather Information
Wind Direction
  ---
Wind Speed
  00 kt (0 mph)
Wind Gust
  00 kt (0 mph)
Altimeter
29.98 in
Visibility
10 SM
Temperature
32° C
90° F
Dewpoint
19° C
66° F
Humidity
46%
1hr Rain Fall
00.00 in.
24hr Rain Fall
00.00 in.
Sky Condition
Clear
VFR

METAR KCBG 192144Z AUTO 00000KT 10SM CLR 32/19 A2998 RMK AO2

FAA Disclaimer: The data displayed is for advisory purposes only and is not to be used for flight planning or operations.